createdAt,value
2017-07-11T00:01:41.415Z,92.70
2017-07-11T00:04:08.987Z,92.90
2017-07-11T00:06:37.367Z,93.10
2017-07-11T00:09:04.933Z,93.10
2017-07-11T00:11:32.539Z,93.30
2017-07-11T00:14:00.129Z,93.20
2017-07-11T00:16:27.702Z,93.40
2017-07-11T00:18:56.057Z,93.40
2017-07-11T00:21:23.644Z,93.70
2017-07-11T00:23:52.007Z,93.70
2017-07-11T00:26:19.600Z,93.60
2017-07-11T00:28:47.940Z,93.70
2017-07-11T00:31:15.531Z,93.70
2017-07-11T00:33:43.883Z,94.10
2017-07-11T00:36:11.461Z,93.60
2017-07-11T00:38:39.038Z,93.80
2017-07-11T00:41:06.619Z,93.80
2017-07-11T00:43:34.202Z,94.00
2017-07-11T00:46:01.794Z,93.90
2017-07-11T00:48:29.372Z,93.70
2017-07-11T00:50:56.948Z,93.90
2017-07-11T00:53:24.523Z,94.10
2017-07-11T00:55:52.129Z,94.40
2017-07-11T00:58:19.685Z,93.80
2017-07-11T01:00:47.256Z,93.70
2017-07-11T01:03:14.848Z,93.50
2017-07-11T01:05:42.423Z,93.30
2017-07-11T01:08:10.008Z,93.40
2017-07-11T01:10:37.578Z,93.50
2017-07-11T01:13:05.200Z,93.50
2017-07-11T01:15:32.773Z,93.40
2017-07-11T01:18:00.354Z,93.30
2017-07-11T01:20:27.942Z,93.50
2017-07-11T01:22:55.532Z,93.60
2017-07-11T01:25:24.704Z,93.40
2017-07-11T01:27:52.282Z,93.40
2017-07-11T01:30:20.099Z,93.50
2017-07-11T01:32:47.690Z,93.60
2017-07-11T01:35:15.257Z,93.60
2017-07-11T01:37:42.854Z,93.40
2017-07-11T01:40:10.438Z,93.50
2017-07-11T01:42:38.012Z,93.50
2017-07-11T01:45:05.613Z,93.20
2017-07-11T01:47:33.196Z,93.10
2017-07-11T01:50:00.769Z,93.20
2017-07-11T01:52:28.335Z,92.70
2017-07-11T01:54:55.916Z,92.70
2017-07-11T01:57:23.507Z,92.80
2017-07-11T01:59:51.095Z,92.60
2017-07-11T02:02:19.432Z,92.20
2017-07-11T02:04:47.014Z,92.20
2017-07-11T02:20:14.615Z,92.30
2017-07-11T02:22:42.246Z,93.30
2017-07-11T02:25:10.578Z,93.30
2017-07-11T02:27:38.183Z,93.30
2017-07-11T02:30:06.551Z,93.30
2017-07-11T02:32:34.115Z,93.50
2017-07-11T02:35:01.702Z,93.00
2017-07-11T02:37:29.266Z,93.00
2017-07-11T02:39:56.850Z,93.10
2017-07-11T02:42:24.479Z,93.10
2017-07-11T02:44:52.818Z,93.00
2017-07-11T02:47:20.399Z,92.90
2017-07-11T02:49:48.049Z,93.10
2017-07-11T02:52:15.636Z,93.00
2017-07-11T02:54:43.974Z,93.30
2017-07-11T02:57:11.542Z,93.30
2017-07-11T02:59:39.131Z,93.30
2017-07-11T03:02:06.734Z,93.20
2017-07-11T03:04:34.331Z,93.00
2017-07-11T03:07:01.905Z,92.80
2017-07-11T03:09:29.478Z,92.60
2017-07-11T03:11:57.811Z,92.60
2017-07-11T03:14:25.534Z,92.60
2017-07-11T03:16:53.110Z,92.60
2017-07-11T03:29:05.700Z,92.40
2017-07-11T03:31:33.274Z,92.40
2017-07-11T03:34:00.871Z,92.60
2017-07-11T03:36:28.452Z,92.60
2017-07-11T03:38:56.783Z,92.30
2017-07-11T03:41:24.399Z,92.30
2017-07-11T03:43:52.379Z,92.00
2017-07-11T03:46:19.943Z,91.90
2017-07-11T03:48:47.527Z,91.80
2017-07-11T03:51:15.146Z,91.60
2017-07-11T03:53:42.735Z,91.60
2017-07-11T03:56:10.325Z,91.60
2017-07-11T03:58:38.270Z,91.40
2017-07-11T04:01:05.856Z,91.30
2017-07-11T04:03:33.438Z,90.80
2017-07-11T04:06:01.272Z,90.90
2017-07-11T04:08:28.854Z,91.10
2017-07-11T04:10:56.443Z,91.00
2017-07-11T04:13:24.776Z,91.30
2017-07-11T04:15:52.378Z,90.80
2017-07-11T04:18:20.720Z,90.80
2017-07-11T04:20:48.339Z,87.90
2017-07-11T04:23:15.911Z,83.00
2017-07-11T04:25:43.529Z,80.70
2017-07-11T04:28:11.102Z,77.20
2017-07-11T04:30:38.800Z,74.50
2017-07-11T04:33:06.362Z,72.80
2017-07-11T04:35:33.932Z,68.50
2017-07-11T04:38:01.511Z,66.50
2017-07-11T04:40:29.082Z,64.70
2017-07-11T04:42:56.658Z,63.30
2017-07-11T04:45:24.255Z,61.70
2017-07-11T04:47:51.830Z,60.30
2017-07-11T04:50:19.396Z,58.70
2017-07-11T04:52:46.962Z,57.40
2017-07-11T04:55:14.556Z,57.70
2017-07-11T04:57:42.147Z,56.00
2017-07-11T05:00:10.490Z,54.50
2017-07-11T05:02:38.125Z,54.40
2017-07-11T05:05:05.695Z,53.30
2017-07-11T05:07:33.280Z,52.20
2017-07-11T05:10:00.847Z,51.10
2017-07-11T05:12:28.436Z,49.30
2017-07-11T05:14:56.779Z,50.50
2017-07-11T05:17:24.338Z,50.50
2017-07-11T05:19:51.921Z,49.10
2017-07-11T05:22:19.493Z,49.80
2017-07-11T05:24:47.060Z,49.50
2017-07-11T05:27:15.395Z,49.80
2017-07-11T05:29:42.965Z,49.90
2017-07-11T05:32:10.552Z,49.20
2017-07-11T05:34:38.150Z,50.00
2017-07-11T05:37:05.719Z,50.00
2017-07-11T05:39:33.309Z,52.10
2017-07-11T05:42:00.884Z,51.90
2017-07-11T05:44:28.482Z,53.60
2017-07-11T05:46:56.059Z,54.90
2017-07-11T05:49:23.626Z,56.70
2017-07-11T05:51:51.275Z,58.60
2017-07-11T05:54:18.864Z,59.20
2017-07-11T05:56:46.882Z,56.70
2017-07-11T05:59:15.830Z,53.30
2017-07-11T06:01:43.395Z,53.30
2017-07-11T06:04:10.994Z,53.40
2017-07-11T06:06:38.542Z,52.40
2017-07-11T06:09:06.118Z,51.00
2017-07-11T06:11:34.472Z,45.10
2017-07-11T06:14:02.050Z,45.00
2017-07-11T06:16:30.414Z,44.70
2017-07-11T06:18:57.986Z,44.30
2017-07-11T06:21:25.751Z,45.50
2017-07-11T06:23:53.363Z,46.00
2017-07-11T06:26:20.933Z,47.00
2017-07-11T06:28:48.494Z,49.60
2017-07-11T06:31:16.064Z,51.30
2017-07-11T06:33:43.630Z,50.20
2017-07-11T06:36:11.246Z,47.30
2017-07-11T06:38:39.643Z,49.30
2017-07-11T06:41:07.316Z,51.90
2017-07-11T06:43:34.901Z,53.60
2017-07-11T06:46:02.476Z,55.90
2017-07-11T06:48:30.059Z,57.40
2017-07-11T06:50:57.618Z,58.20
2017-07-11T06:53:25.998Z,59.40
2017-07-11T06:55:54.344Z,62.70
2017-07-11T06:58:21.916Z,62.80
2017-07-11T07:00:49.546Z,64.00
2017-07-11T07:03:17.139Z,64.70
2017-07-11T07:05:44.722Z,67.20
2017-07-11T07:08:12.348Z,68.20
2017-07-11T07:10:39.913Z,69.70
2017-07-11T07:13:07.517Z,69.70
2017-07-11T07:15:35.086Z,70.20
2017-07-11T07:18:02.694Z,69.60
2017-07-11T07:20:30.289Z,69.50
2017-07-11T07:22:57.871Z,69.70
2017-07-11T07:25:25.494Z,68.80
2017-07-11T07:27:53.070Z,69.80
2017-07-11T07:30:21.519Z,68.70
2017-07-11T07:32:49.104Z,68.60
2017-07-11T07:35:16.703Z,69.40
2017-07-11T07:37:44.295Z,69.60
2017-07-11T07:40:11.887Z,69.20
2017-07-11T07:42:39.454Z,71.10
2017-07-11T07:45:07.826Z,70.80
2017-07-11T07:47:35.403Z,70.70
2017-07-11T07:50:03.016Z,72.20
2017-07-11T07:52:30.595Z,72.00
2017-07-11T07:54:58.155Z,72.70
2017-07-11T07:57:25.750Z,73.50
2017-07-11T07:59:53.331Z,73.70
2017-07-11T08:02:20.918Z,73.40
2017-07-11T08:04:48.515Z,73.10
2017-07-11T08:07:16.117Z,72.00
2017-07-11T08:09:43.854Z,72.20
2017-07-11T08:12:12.222Z,72.00
2017-07-11T08:14:40.568Z,72.60
2017-07-11T08:17:08.150Z,72.20
2017-07-11T08:19:36.530Z,72.80
2017-07-11T08:22:04.094Z,71.80
2017-07-11T08:24:31.691Z,71.20
2017-07-11T08:26:59.321Z,72.30
2017-07-11T08:29:26.948Z,73.10
2017-07-11T08:31:54.557Z,71.00
2017-07-11T08:34:22.160Z,71.60
2017-07-11T08:36:49.754Z,71.70
2017-07-11T08:39:17.337Z,71.50
2017-07-11T08:41:44.921Z,69.70
2017-07-11T08:44:13.340Z,69.40
2017-07-11T08:46:40.942Z,68.50
2017-07-11T08:49:08.579Z,69.40
2017-07-11T08:51:36.202Z,64.50
2017-07-11T08:54:03.802Z,61.00
2017-07-11T08:56:31.343Z,60.90
2017-07-11T08:58:58.992Z,59.00
2017-07-11T09:01:26.591Z,55.50
2017-07-11T09:03:54.350Z,56.00
2017-07-11T09:06:21.933Z,58.50
2017-07-11T09:08:49.527Z,60.50
2017-07-11T09:11:17.111Z,63.10
2017-07-11T09:13:44.711Z,66.60
2017-07-11T09:16:12.298Z,68.00
2017-07-11T09:18:39.903Z,68.00
2017-07-11T09:21:07.774Z,69.20
2017-07-11T09:23:35.417Z,69.00
2017-07-11T09:26:02.995Z,69.20
2017-07-11T09:28:30.574Z,67.50
2017-07-11T09:30:58.162Z,65.60
2017-07-11T09:33:25.723Z,65.00
2017-07-11T09:35:53.331Z,63.10
2017-07-11T09:38:20.943Z,63.20
2017-07-11T09:40:49.281Z,58.20
2017-07-11T09:43:16.902Z,57.60
2017-07-11T09:45:45.309Z,58.30
2017-07-11T09:48:12.947Z,58.10
2017-07-11T09:50:40.595Z,55.80
2017-07-11T09:53:08.936Z,56.70
2017-07-11T09:55:36.494Z,56.10
2017-07-11T09:58:04.451Z,54.20
2017-07-11T10:00:32.054Z,53.50
2017-07-11T10:02:59.647Z,52.40
2017-07-11T10:05:27.242Z,50.90
2017-07-11T10:07:54.884Z,49.80
2017-07-11T10:10:22.520Z,51.70
2017-07-11T10:12:50.101Z,51.90
2017-07-11T10:15:17.687Z,51.60
2017-07-11T10:17:45.270Z,51.00
2017-07-11T10:20:12.884Z,50.90
2017-07-11T10:22:40.468Z,51.90
2017-07-11T10:25:08.052Z,53.10
2017-07-11T10:27:35.831Z,51.80
2017-07-11T10:30:03.402Z,50.50
2017-07-11T10:32:30.977Z,49.50
2017-07-11T10:34:58.570Z,50.30
2017-07-11T10:37:26.145Z,48.30
2017-07-11T10:39:53.719Z,49.80
2017-07-11T10:42:21.326Z,48.10
2017-07-11T10:44:48.932Z,48.90
2017-07-11T10:47:17.742Z,48.70
2017-07-11T10:49:45.733Z,48.70
2017-07-11T10:52:14.301Z,48.60
2017-07-11T10:54:42.302Z,48.60
2017-07-11T10:57:10.640Z,49.40
2017-07-11T10:59:38.674Z,49.30
2017-07-11T11:02:07.167Z,47.60
2017-07-11T11:04:34.881Z,46.70
2017-07-11T11:07:03.807Z,46.50
2017-07-11T11:09:35.384Z,46.40
2017-07-11T11:12:03.938Z,49.10
2017-07-11T11:14:31.508Z,49.00
2017-07-11T11:16:59.083Z,50.30
2017-07-11T11:19:27.574Z,52.50
2017-07-11T11:21:55.964Z,50.80
2017-07-11T11:24:24.292Z,46.80
2017-07-11T11:26:51.903Z,45.30
2017-07-11T11:29:19.510Z,46.20
2017-07-11T11:31:47.924Z,43.80
2017-07-11T11:34:15.497Z,43.80
2017-07-11T11:36:43.083Z,44.40
2017-07-11T11:39:10.685Z,44.70
2017-07-11T11:41:38.240Z,45.00
2017-07-11T11:44:05.932Z,45.00
2017-07-11T11:46:33.491Z,44.50
2017-07-11T11:49:01.071Z,44.30
2017-07-11T11:51:28.676Z,45.30
2017-07-11T11:53:56.339Z,44.50
2017-07-11T11:56:23.911Z,46.60
2017-07-11T11:58:52.280Z,46.60
2017-07-11T12:01:19.872Z,47.10
2017-07-11T12:03:47.438Z,46.40
2017-07-11T12:06:15.015Z,46.80
2017-07-11T12:08:42.606Z,46.00
2017-07-11T12:11:10.208Z,44.40
2017-07-11T12:13:37.807Z,44.70
2017-07-11T12:16:05.389Z,44.60
2017-07-11T12:18:33.101Z,46.40
2017-07-11T12:21:00.686Z,47.80
2017-07-11T12:23:28.263Z,44.80
2017-07-11T12:25:55.866Z,44.20
2017-07-11T12:28:24.190Z,44.30
2017-07-11T12:30:51.804Z,44.30
2017-07-11T12:33:19.399Z,43.70
2017-07-11T12:35:46.987Z,45.10
2017-07-11T12:38:14.580Z,44.30
2017-07-11T12:40:42.165Z,43.60
2017-07-11T12:43:09.749Z,42.00
2017-07-11T12:45:37.333Z,41.10
2017-07-11T12:48:04.992Z,42.10
2017-07-11T12:50:32.614Z,41.00
2017-07-11T12:53:00.161Z,40.30
2017-07-11T12:55:27.759Z,42.00
2017-07-11T12:57:55.382Z,42.00
2017-07-11T13:00:22.975Z,43.10
2017-07-11T13:02:50.571Z,43.80
2017-07-11T13:05:18.188Z,42.80
2017-07-11T13:07:45.776Z,42.70
2017-07-11T13:10:13.339Z,41.60
2017-07-11T13:12:40.927Z,43.60
2017-07-11T13:15:08.503Z,43.30
2017-07-11T13:17:36.079Z,43.20
2017-07-11T13:20:03.700Z,44.30
2017-07-11T13:22:31.310Z,44.10
2017-07-11T13:24:59.060Z,43.70
2017-07-11T13:27:28.631Z,45.00
2017-07-11T13:29:56.563Z,44.30
2017-07-11T13:32:24.139Z,44.20
2017-07-11T13:34:52.562Z,45.10
2017-07-11T13:37:20.203Z,45.50
2017-07-11T13:39:47.767Z,45.30
2017-07-11T13:42:15.348Z,45.30
2017-07-11T13:44:43.677Z,44.90
2017-07-11T13:47:11.294Z,44.90
2017-07-11T13:49:39.626Z,44.40
2017-07-11T13:52:07.225Z,44.30
2017-07-11T13:54:34.820Z,45.10
2017-07-11T13:57:02.422Z,45.50
2017-07-11T13:59:29.998Z,45.10
2017-07-11T14:01:57.564Z,46.00
2017-07-11T14:04:25.147Z,45.90
2017-07-11T14:06:53.499Z,45.90
2017-07-11T14:09:21.151Z,45.90
2017-07-11T14:11:48.765Z,46.30
2017-07-11T14:14:16.339Z,46.70
2017-07-11T14:16:43.906Z,45.30
2017-07-11T14:19:11.534Z,45.70
2017-07-11T14:21:39.102Z,45.90
2017-07-11T14:24:06.702Z,44.50
2017-07-11T14:26:34.316Z,45.00
2017-07-11T14:29:01.877Z,44.50
2017-07-11T14:31:30.211Z,43.90
2017-07-11T14:33:57.807Z,43.90
2017-07-11T14:36:25.383Z,44.00
2017-07-11T14:38:52.956Z,43.40
2017-07-11T14:41:20.601Z,43.90
2017-07-11T14:43:48.941Z,45.20
2017-07-11T14:46:16.500Z,45.20
2017-07-11T14:48:44.349Z,45.10
2017-07-11T14:51:11.944Z,45.30
2017-07-11T14:53:39.530Z,45.60
2017-07-11T14:56:07.113Z,45.90
2017-07-11T14:58:34.699Z,45.10
2017-07-11T15:01:02.290Z,44.60
2017-07-11T15:03:29.924Z,45.10
2017-07-11T15:05:57.529Z,46.00
2017-07-11T15:08:25.101Z,45.90
2017-07-11T15:10:53.467Z,46.90
2017-07-11T15:13:21.057Z,46.90
2017-07-11T15:15:48.649Z,47.70
2017-07-11T15:18:17.280Z,47.10
2017-07-11T15:20:45.631Z,46.90
2017-07-11T15:23:13.234Z,46.70
2017-07-11T15:25:41.575Z,48.20
2017-07-11T15:28:09.198Z,48.10
2017-07-11T15:30:36.787Z,47.80
2017-07-11T15:33:04.393Z,48.30
2017-07-11T15:35:32.009Z,47.50
2017-07-11T15:37:59.606Z,47.20
2017-07-11T15:40:27.285Z,45.10
2017-07-11T15:42:54.885Z,45.80
2017-07-11T15:45:22.492Z,46.30
2017-07-11T15:47:50.826Z,46.00
2017-07-11T15:50:18.439Z,45.90
2017-07-11T15:52:46.778Z,45.10
2017-07-11T15:55:14.382Z,45.10
2017-07-11T15:57:41.970Z,43.70
2017-07-11T16:00:09.578Z,45.00
2017-07-11T16:02:37.170Z,45.00
2017-07-11T16:05:05.522Z,44.90
2017-07-11T16:07:33.083Z,44.90
2017-07-11T16:10:00.711Z,45.40
2017-07-11T16:12:28.284Z,44.50
2017-07-11T16:14:55.866Z,44.40
2017-07-11T16:17:23.789Z,44.70
2017-07-11T16:19:51.523Z,44.60
2017-07-11T16:22:19.889Z,44.70
2017-07-11T16:24:47.466Z,44.60
2017-07-11T16:27:15.124Z,44.90
2017-07-11T16:29:42.727Z,44.70
2017-07-11T16:32:10.318Z,44.90
2017-07-11T16:34:37.907Z,44.80
2017-07-11T16:37:05.557Z,44.80
2017-07-11T16:39:33.367Z,45.20
2017-07-11T16:42:01.327Z,45.00
2017-07-11T16:44:28.928Z,45.80
2017-07-11T16:46:56.576Z,45.80
2017-07-11T16:49:24.166Z,48.50
2017-07-11T16:51:51.807Z,50.00
2017-07-11T16:54:19.450Z,49.90
2017-07-11T16:56:47.077Z,51.30
2017-07-11T16:59:15.439Z,50.50
2017-07-11T17:01:43.014Z,50.40
2017-07-11T17:04:10.642Z,51.60
2017-07-11T17:06:38.252Z,52.30
2017-07-11T17:09:05.861Z,52.10
2017-07-11T17:11:33.451Z,51.70
2017-07-11T17:14:01.280Z,52.00
2017-07-11T17:16:28.895Z,52.60
2017-07-11T17:18:56.519Z,53.30
2017-07-11T17:21:24.143Z,53.30
2017-07-11T17:23:51.740Z,53.50
2017-07-11T17:26:19.359Z,53.60
2017-07-11T17:28:46.943Z,53.70
2017-07-11T17:31:14.519Z,54.20
2017-07-11T17:33:42.130Z,54.20
2017-07-11T17:36:09.743Z,54.80
2017-07-11T17:38:37.380Z,54.00
2017-07-11T17:41:04.976Z,54.70
2017-07-11T17:43:32.589Z,54.10
2017-07-11T17:46:00.158Z,54.10
2017-07-11T17:51:01.658Z,55.10
2017-07-11T17:53:29.263Z,54.60
2017-07-11T17:55:56.859Z,54.80
2017-07-11T17:58:24.441Z,54.60
2017-07-11T18:00:52.115Z,54.70
2017-07-11T18:03:19.704Z,55.10
2017-07-11T18:05:47.324Z,56.00
2017-07-11T18:08:14.919Z,56.30
2017-07-11T18:10:42.519Z,56.40
2017-07-11T18:13:10.109Z,56.90
2017-07-11T18:15:37.712Z,57.70
2017-07-11T18:18:05.335Z,58.80
2017-07-11T18:20:32.968Z,58.90
2017-07-11T18:23:00.588Z,59.20
2017-07-11T18:25:28.150Z,59.80
2017-07-11T18:27:55.909Z,60.60
2017-07-11T18:30:23.537Z,61.40
2017-07-11T18:32:51.150Z,61.90
2017-07-11T18:35:19.499Z,62.80
2017-07-11T18:37:47.139Z,63.50
2017-07-11T18:40:14.727Z,62.90
2017-07-11T18:42:42.330Z,62.90
2017-07-11T18:45:10.720Z,62.80
2017-07-11T18:47:38.436Z,62.80
2017-07-11T18:50:06.114Z,63.80
2017-07-11T18:52:33.758Z,64.10
2017-07-11T18:55:01.425Z,64.60
2017-07-11T18:57:29.044Z,64.50
2017-07-11T18:59:56.636Z,65.10
2017-07-11T19:02:24.278Z,64.70
2017-07-11T19:04:51.961Z,65.40
2017-07-11T19:07:19.561Z,64.70
2017-07-11T19:09:47.194Z,64.80
2017-07-11T19:12:14.819Z,65.80
2017-07-11T19:14:42.427Z,65.50
2017-07-11T19:17:10.032Z,65.00
2017-07-11T19:19:37.680Z,65.40
2017-07-11T19:22:05.263Z,64.20
2017-07-11T19:24:32.844Z,64.40
2017-07-11T19:27:00.471Z,64.10
2017-07-11T19:29:28.867Z,64.90
2017-07-11T19:31:56.425Z,65.00
2017-07-11T19:34:24.016Z,65.10
2017-07-11T19:36:51.616Z,65.60
2017-07-11T19:39:19.220Z,66.70
2017-07-11T19:41:46.888Z,67.80
2017-07-11T19:44:14.504Z,68.60
2017-07-11T19:46:42.871Z,69.70
2017-07-11T19:49:10.481Z,70.60
2017-07-11T19:51:38.069Z,69.10
2017-07-11T19:54:05.728Z,69.40
2017-07-11T19:56:33.384Z,69.60
2017-07-11T19:59:00.992Z,69.70
2017-07-11T20:01:28.568Z,70.00
2017-07-11T20:03:57.102Z,68.90
2017-07-11T20:06:24.748Z,68.80
2017-07-11T20:08:52.351Z,69.20
2017-07-11T20:11:19.954Z,72.70
2017-07-11T20:13:47.569Z,76.10
2017-07-11T20:16:15.164Z,80.30
2017-07-11T20:18:42.844Z,81.80
2017-07-11T20:21:10.444Z,83.30
2017-07-11T20:23:38.022Z,84.80
2017-07-11T20:26:05.622Z,86.20
2017-07-11T20:28:33.195Z,87.20
2017-07-11T20:31:00.837Z,87.40
2017-07-11T20:33:28.510Z,88.20
2017-07-11T20:35:56.111Z,88.20
2017-07-11T20:38:23.869Z,88.10
2017-07-11T20:40:51.492Z,89.00
2017-07-11T20:43:19.103Z,89.70
2017-07-11T20:45:46.685Z,89.30
2017-07-11T20:48:14.307Z,89.60
2017-07-11T20:50:41.922Z,90.10
2017-07-11T20:53:09.515Z,90.10
2017-07-11T20:55:37.138Z,90.10
2017-07-11T20:58:04.729Z,90.30
2017-07-11T21:00:32.336Z,90.50
2017-07-11T21:02:59.923Z,90.70
2017-07-11T21:05:27.512Z,90.90
2017-07-11T21:07:55.131Z,91.50
2017-07-11T21:10:22.731Z,91.50
2017-07-11T21:12:50.294Z,91.40
2017-07-11T21:15:17.904Z,91.80
2017-07-11T21:17:45.483Z,92.00
2017-07-11T21:20:13.086Z,91.90
2017-07-11T21:22:40.711Z,92.30
2017-07-11T21:25:08.303Z,92.10
2017-07-11T21:27:35.945Z,92.20
2017-07-11T21:30:03.515Z,91.90
2017-07-11T21:32:31.123Z,91.90
2017-07-11T21:34:58.709Z,92.00
2017-07-11T21:37:26.326Z,92.20
2017-07-11T21:39:53.902Z,91.90
2017-07-11T21:42:21.479Z,92.10
2017-07-11T21:44:49.108Z,91.90
2017-07-11T21:47:16.690Z,92.10
2017-07-11T21:49:44.276Z,92.10
2017-07-11T21:52:11.880Z,92.10
2017-07-11T21:54:39.459Z,92.30
2017-07-11T21:57:07.046Z,92.50
2017-07-11T21:59:34.662Z,92.70
2017-07-11T22:02:02.263Z,92.50
2017-07-11T22:04:29.914Z,92.50
2017-07-11T22:06:57.521Z,92.20
2017-07-11T22:09:25.108Z,91.70
2017-07-11T22:11:52.703Z,91.90
2017-07-11T22:14:20.279Z,91.70
2017-07-11T22:16:47.854Z,91.90
2017-07-11T22:19:15.582Z,92.00
2017-07-11T22:21:43.172Z,91.80
2017-07-11T22:24:10.731Z,91.80
2017-07-11T22:26:38.312Z,91.90
2017-07-11T22:29:06.651Z,92.10
2017-07-11T22:31:34.251Z,91.90
2017-07-11T22:34:01.842Z,91.70
2017-07-11T22:36:29.464Z,92.00
2017-07-11T22:38:57.042Z,92.10
2017-07-11T22:41:25.384Z,92.00
2017-07-11T22:43:52.979Z,91.90
2017-07-11T22:46:21.375Z,92.10
2017-07-11T22:48:48.957Z,92.10
2017-07-11T22:51:16.540Z,92.10
2017-07-11T22:53:44.171Z,92.20
2017-07-11T22:56:11.763Z,92.10
2017-07-11T22:58:39.335Z,92.20
2017-07-11T23:01:06.927Z,92.10
2017-07-11T23:03:34.500Z,91.80
2017-07-11T23:06:02.082Z,91.90
2017-07-11T23:08:29.758Z,92.00
2017-07-11T23:10:57.346Z,91.80
2017-07-11T23:13:24.919Z,91.90
2017-07-11T23:15:52.507Z,91.70
2017-07-11T23:18:20.243Z,91.60
2017-07-11T23:20:47.819Z,91.80
2017-07-11T23:23:15.415Z,91.80
2017-07-11T23:25:43.000Z,91.80
2017-07-11T23:28:10.571Z,91.50
2017-07-11T23:30:38.162Z,91.70
2017-07-11T23:33:05.745Z,91.90
2017-07-11T23:35:33.319Z,91.70
2017-07-11T23:38:00.907Z,91.70
2017-07-11T23:40:28.480Z,91.90
2017-07-11T23:42:56.057Z,92.00
2017-07-11T23:45:23.652Z,92.10
2017-07-11T23:47:51.227Z,92.00
2017-07-11T23:50:18.906Z,92.00
2017-07-11T23:52:46.504Z,92.00
2017-07-11T23:55:14.079Z,91.90
2017-07-11T23:57:41.632Z,91.90
